Linden, NJ (07036)

7:20 AM EDT on October 21, 2014 (GMT -0400)
(Church St. near Rahway River) | Change Station
CLOSE
Current Station
Personal Weather Station
Location: Rahway, NJ
Elevation: 20 ft
Nearby Weather Stations

Elev 20 ft 40.61 °N, 74.28 °W | Updated 2 seconds ago

Clear
Clear
47.8 °F
Feels Like 48 °F
N
0.0
Wind Variable Wind from SSW
Gusts 0.0 mph

Today
High -- | Low -- °F
--% Chance of Precip.
Yesterday
High -- | Low -- °F
Precip. -- in
7:14 AM 6:07 PM
Waning Crescent, 6% visible
Pressure 29.90 in
Visibility 10.0 miles
Clouds Clear
Windchill 48 °F
Dew Point 45 °F
Humidity 91%
Rainfall 0.00 in
Snow Depth Not available.
UV 0 out of 12
Pollen .70 out of 12
Air Quality Not available.
Flu Activity Sporadic
METAR KLDJ 211115Z AUTO 00000KT 10SM CLR 13/09 A2990 RMK AO2 T01300092

More Conditions Fewer Conditions

Pressure 29.90 in
Visibility 10.0 miles
Clouds Clear
Windchill 48 °F
Dew Point 45 °F
Humidity 91%
Rainfall 0.00 in
Snow Depth Not available.
UV 0 out of 12
Pollen .70 out of 12
Air Quality Not available.
Flu Activity Sporadic
METAR KLDJ 211115Z AUTO 00000KT 10SM CLR 13/09 A2990 RMK AO2 T01300092

More Conditions Fewer Conditions

10-Day Weather Forecast

Almanac

Astronomy

Oct. 21, 2014 Rise Set
Actual Time 7:14 AM EDT 6:07 PM EDT
Civil Twilight 6:46 AM EDT 6:35 PM EDT
Nautical Twilight 6:14 AM EDT 7:07 PM EDT
Astronomical Twilight 5:43 AM EDT 7:39 PM EDT
Moon 4:55 AM EDT 5:01 PM EDT
Length of Visible Light 11h 48m
Length of Day
10h 53m
Tomorrow will be 2m 31s shorter.
Waning Crescent, 6% of the Moon is Illuminated
Today
Waning Crescent
Oct 23
New
Oct 30
First Quarter
Nov 6
Full
Nov 14
Last Quarter

Today's Extremes

State Highs State Lows

Community

WunderPhotos

Upload Photos

1,763,627 photos uploaded!

Nearby

Snow Depth

Station Depth Elevation
No new snow has been reported.

Earthquake Activity

City Distance Mag. Time & Date
No recent earthquake activity has been reported nearby.
Minimum magnitude displayed is 2.5.

Coastal Water Temperatures

Place Temperature
Sandy Hook, NJ 61.0 °F
The Battery, NY 63.0 °F
Bergen Point West Reach, NJ 62.1 °F

Nearby Weather Stations